createdAt,value
2022-12-01T00:01:15.662Z,78807.19
2022-12-01T00:03:43.179Z,78803.16
2022-12-01T00:06:18.078Z,78807.19
2022-12-01T00:09:06.684Z,78799.09
2022-12-01T00:11:35.485Z,78799.09
2022-12-01T00:14:03.377Z,78807.19
2022-12-01T00:16:31.228Z,78807.19
2022-12-01T00:18:58.706Z,78803.16
2022-12-01T00:21:27.160Z,78807.19
2022-12-01T00:23:56.724Z,78811.25
2022-12-01T00:26:25.349Z,78819.38
2022-12-01T00:28:55.302Z,78815.31
2022-12-01T00:31:22.980Z,78819.38
2022-12-01T00:33:50.665Z,78819.38
2022-12-01T00:36:17.560Z,78815.31
2022-12-01T00:38:45.017Z,78811.25
2022-12-01T00:41:11.889Z,78815.31
2022-12-01T00:43:39.896Z,78805.19
2022-12-01T00:46:07.224Z,78801.13
2022-12-01T00:48:34.633Z,78803.16
2022-12-01T00:51:01.693Z,78805.19
2022-12-01T00:53:29.613Z,78823.44
2022-12-01T00:55:56.743Z,78807.19
2022-12-01T00:58:24.454Z,78799.09
2022-12-01T01:00:59.392Z,78793.00
2022-12-01T01:03:27.739Z,78795.03
2022-12-01T01:05:55.038Z,78788.94
2022-12-01T01:08:22.369Z,78786.91
2022-12-01T01:10:49.511Z,78788.94
2022-12-01T01:13:17.367Z,78782.84
2022-12-01T01:15:44.485Z,78782.84
2022-12-01T01:18:12.522Z,78782.84
2022-12-01T01:20:39.434Z,78790.97
2022-12-01T01:23:07.089Z,78793.00
2022-12-01T01:25:34.295Z,78793.00
2022-12-01T01:28:01.437Z,78790.97
2022-12-01T01:30:28.412Z,78786.91
2022-12-01T01:32:55.719Z,78790.97
2022-12-01T01:35:22.759Z,78799.09
2022-12-01T01:37:50.972Z,78801.13
2022-12-01T01:40:18.563Z,78799.09
2022-12-01T01:42:45.950Z,78795.03
2022-12-01T01:45:33.150Z,78795.03
2022-12-01T01:48:00.933Z,78790.97
2022-12-01T01:50:29.238Z,78795.03
2022-12-01T01:53:07.895Z,78790.97
2022-12-01T01:55:36.151Z,78790.97
2022-12-01T01:58:07.287Z,78795.03
2022-12-01T02:00:34.340Z,78793.00
2022-12-01T02:03:02.499Z,78799.09
2022-12-01T02:05:34.617Z,78807.19
2022-12-01T02:08:03.484Z,78811.25
2022-12-01T02:10:56.446Z,78807.19
2022-12-01T02:13:32.464Z,78795.03
2022-12-01T02:16:12.430Z,78807.19
2022-12-01T02:18:57.988Z,78795.03
2022-12-01T02:22:12.731Z,78803.16
2022-12-01T02:24:49.542Z,78799.09
2022-12-01T02:27:29.463Z,78795.03
2022-12-01T02:30:02.553Z,78803.16
2022-12-01T02:32:50.342Z,78799.09
2022-12-01T02:35:42.474Z,78795.03
2022-12-01T02:38:34.657Z,78795.03
2022-12-01T02:41:10.932Z,78803.16
2022-12-01T02:43:53.357Z,78799.09
2022-12-01T02:46:37.437Z,78799.09
2022-12-01T02:49:10.476Z,78790.97
2022-12-01T02:51:41.558Z,78803.16
2022-12-01T02:54:08.784Z,78803.16
2022-12-01T02:56:35.983Z,78803.16
2022-12-01T02:59:09.930Z,78801.13
2022-12-01T03:01:38.224Z,78807.19
2022-12-01T03:04:08.961Z,78807.19
2022-12-01T03:06:52.071Z,78795.03
2022-12-01T03:09:22.052Z,78788.94
2022-12-01T03:11:59.861Z,78795.03
2022-12-01T03:14:39.637Z,78795.03
2022-12-01T03:17:18.145Z,78803.16
2022-12-01T03:19:50.671Z,78795.03
2022-12-01T03:22:33.626Z,78799.09
2022-12-01T03:25:03.773Z,78803.16
2022-12-01T03:27:35.345Z,78799.09
2022-12-01T03:30:03.734Z,78795.03
2022-12-01T03:32:41.807Z,78795.03
2022-12-01T03:35:16.165Z,78790.97
2022-12-01T03:38:21.843Z,78780.84
2022-12-01T03:40:53.011Z,78793.00
2022-12-01T03:43:26.880Z,78778.81
2022-12-01T03:46:00.226Z,78786.91
2022-12-01T03:48:28.266Z,78790.97
2022-12-01T03:51:04.221Z,78790.97
2022-12-01T03:53:55.185Z,78782.84
2022-12-01T03:56:27.469Z,78782.84
2022-12-01T03:58:58.050Z,78795.03
2022-12-01T04:01:26.726Z,78782.84
2022-12-01T04:03:53.887Z,78801.13
2022-12-01T04:06:20.716Z,78799.09
2022-12-01T04:08:47.907Z,78790.97
2022-12-01T04:11:33.364Z,78790.97
2022-12-01T04:14:00.511Z,78786.91
2022-12-01T04:16:27.438Z,78782.84
2022-12-01T04:18:54.662Z,78786.91
2022-12-01T04:21:21.456Z,78786.91
2022-12-01T04:24:00.665Z,78782.84
2022-12-01T04:26:33.256Z,78780.84
2022-12-01T04:29:08.477Z,78774.75
2022-12-01T04:31:35.816Z,78778.81
2022-12-01T04:34:03.363Z,78778.81
2022-12-01T04:36:32.229Z,78780.84
2022-12-01T04:38:59.361Z,78776.78
2022-12-01T04:41:26.623Z,78784.88
2022-12-01T04:43:54.764Z,78782.84
2022-12-01T04:46:22.557Z,78782.84
2022-12-01T04:48:50.101Z,78786.91
2022-12-01T04:51:16.943Z,78786.91
2022-12-01T04:53:44.097Z,78790.97
2022-12-01T04:56:11.125Z,78790.97
2022-12-01T04:58:38.733Z,78793.00
2022-12-01T05:01:08.909Z,78790.97
2022-12-01T05:03:40.659Z,78786.91
2022-12-01T05:06:10.827Z,78793.00
2022-12-01T05:08:38.655Z,78790.97
2022-12-01T05:11:09.310Z,78801.13
2022-12-01T05:13:41.228Z,78799.09
2022-12-01T05:16:09.541Z,78790.97
2022-12-01T05:18:36.857Z,78795.03
2022-12-01T05:21:06.206Z,78788.94
2022-12-01T05:23:35.561Z,78795.03
2022-12-01T05:26:04.841Z,78801.13
2022-12-01T05:28:32.756Z,78795.03
2022-12-01T05:30:59.700Z,78790.97
2022-12-01T05:33:27.855Z,78790.97
2022-12-01T05:35:55.019Z,78782.84
2022-12-01T05:38:22.139Z,78782.84
2022-12-01T05:40:54.463Z,78778.81
2022-12-01T05:43:28.569Z,78778.81
2022-12-01T05:45:57.188Z,78778.81
2022-12-01T05:48:24.771Z,78778.81
2022-12-01T05:50:51.697Z,78782.84
2022-12-01T05:53:19.591Z,78790.97
2022-12-01T05:55:46.521Z,78788.94
2022-12-01T05:58:13.687Z,78790.97
2022-12-01T06:00:45.656Z,78803.16
2022-12-01T06:03:14.322Z,78803.16
2022-12-01T06:05:41.277Z,78803.16
2022-12-01T06:08:08.626Z,78813.28
2022-12-01T06:10:35.777Z,78803.16
2022-12-01T06:13:02.953Z,78803.16
2022-12-01T06:15:29.967Z,78799.09
2022-12-01T06:18:00.098Z,78795.03
2022-12-01T06:20:27.222Z,78799.09
2022-12-01T06:22:54.389Z,78799.09
2022-12-01T06:25:21.223Z,78803.16
2022-12-01T06:27:48.329Z,78799.09
2022-12-01T06:30:15.472Z,78807.19
2022-12-01T06:32:42.549Z,78807.19
2022-12-01T06:35:09.511Z,78803.16
2022-12-01T06:37:36.858Z,78807.19
2022-12-01T06:40:04.522Z,78807.19
2022-12-01T06:42:32.507Z,78795.03
2022-12-01T06:44:59.466Z,78803.16
2022-12-01T06:47:27.152Z,78793.00
2022-12-01T06:49:53.982Z,78793.00
2022-12-01T06:52:21.147Z,78790.97
2022-12-01T06:54:47.960Z,78795.03
2022-12-01T06:57:15.617Z,78795.03
2022-12-01T06:59:42.753Z,78795.03
2022-12-01T07:02:13.928Z,78790.97
2022-12-01T07:04:59.181Z,78835.59
2022-12-01T07:07:26.368Z,78799.09
2022-12-01T07:09:53.235Z,78805.19
2022-12-01T07:12:20.357Z,78803.16
2022-12-01T07:14:47.213Z,78799.09
2022-12-01T07:17:14.293Z,78801.13
2022-12-01T07:19:41.142Z,78805.19
2022-12-01T07:22:08.272Z,78803.16
2022-12-01T07:24:36.404Z,78805.19
2022-12-01T07:27:03.749Z,78807.19
2022-12-01T07:29:30.607Z,78803.16
2022-12-01T07:31:57.752Z,78803.16
2022-12-01T07:34:24.851Z,78795.03
2022-12-01T07:36:52.145Z,78799.09
2022-12-01T07:39:18.958Z,78803.16
2022-12-01T07:41:46.263Z,78807.19
2022-12-01T07:44:13.481Z,78801.13
2022-12-01T07:46:40.776Z,78803.16
2022-12-01T07:49:08.695Z,78803.16
2022-12-01T07:51:36.208Z,78795.03
2022-12-01T07:54:05.447Z,78803.16
2022-12-01T07:56:33.017Z,78801.13
2022-12-01T07:58:59.860Z,78795.03
2022-12-01T08:01:27.118Z,78795.03
2022-12-01T08:03:56.728Z,78803.16
2022-12-01T08:06:25.466Z,78786.91
2022-12-01T08:08:53.055Z,78782.84
2022-12-01T08:11:23.288Z,78786.91
2022-12-01T08:13:51.142Z,78782.84
2022-12-01T08:16:20.427Z,78786.91
2022-12-01T08:18:47.678Z,78782.84
2022-12-01T08:21:16.971Z,78788.94
2022-12-01T08:23:44.598Z,78782.84
2022-12-01T08:26:15.312Z,78778.81
2022-12-01T08:28:42.918Z,78782.84
2022-12-01T08:31:16.037Z,78788.94
2022-12-01T08:33:42.948Z,78790.97
2022-12-01T08:36:10.285Z,78790.97
2022-12-01T08:38:37.292Z,78795.03
2022-12-01T08:41:07.384Z,78790.97
2022-12-01T08:46:28.816Z,78766.63
2022-12-01T08:48:57.432Z,78770.69
2022-12-01T08:51:25.610Z,78770.69
2022-12-01T08:53:52.854Z,78782.84
2022-12-01T08:56:26.455Z,78778.81
2022-12-01T08:58:54.271Z,78784.88
2022-12-01T09:01:22.156Z,78790.97
2022-12-01T09:04:05.067Z,78782.84
2022-12-01T09:06:42.666Z,78776.78
2022-12-01T09:09:14.643Z,78770.69
2022-12-01T09:11:43.913Z,78768.66
2022-12-01T09:14:12.249Z,78766.63
2022-12-01T09:16:40.350Z,78770.69
2022-12-01T09:19:07.308Z,78764.59
2022-12-01T09:21:37.169Z,78762.56
2022-12-01T09:24:06.425Z,78762.56
2022-12-01T09:26:34.345Z,78766.63
2022-12-01T09:29:04.382Z,78762.56
2022-12-01T09:31:32.295Z,78754.47
2022-12-01T09:34:01.731Z,78754.47
2022-12-01T09:36:31.082Z,78758.53
2022-12-01T09:38:58.487Z,78754.47
2022-12-01T09:41:27.194Z,78758.53
2022-12-01T09:44:06.048Z,78766.63
2022-12-01T09:46:41.486Z,78758.53
2022-12-01T09:49:19.505Z,78764.59
2022-12-01T09:51:46.808Z,78766.63
2022-12-01T09:54:14.575Z,78766.63
2022-12-01T09:56:47.206Z,78766.63
2022-12-01T09:59:18.839Z,78768.66
2022-12-01T10:01:49.691Z,78766.63
2022-12-01T10:04:23.170Z,78766.63
2022-12-01T10:06:56.572Z,78766.63
2022-12-01T10:09:34.793Z,78770.69
2022-12-01T10:12:14.041Z,78778.81
2022-12-01T10:14:41.203Z,78774.75
2022-12-01T10:17:23.738Z,78770.69
2022-12-01T10:20:36.644Z,78770.69
2022-12-01T10:23:21.652Z,78770.69
2022-12-01T10:25:59.872Z,78770.69
2022-12-01T10:28:46.412Z,78770.69
2022-12-01T10:31:26.668Z,78762.56
2022-12-01T10:34:05.928Z,78762.56
2022-12-01T10:36:34.729Z,78766.63
2022-12-01T10:39:04.798Z,78770.69
2022-12-01T10:41:35.255Z,78774.75
2022-12-01T10:44:05.607Z,78766.63
2022-12-01T10:46:43.750Z,78766.63
2022-12-01T10:49:14.158Z,78762.56
2022-12-01T10:51:56.905Z,78762.56
2022-12-01T10:54:32.680Z,78766.63
2022-12-01T10:56:59.653Z,78762.56
2022-12-01T10:59:32.867Z,78758.53
2022-12-01T11:02:02.376Z,78754.47
2022-12-01T11:04:51.770Z,78758.53
2022-12-01T11:07:23.197Z,78766.63
2022-12-01T11:10:15.531Z,78766.63
2022-12-01T11:12:53.933Z,78766.63
2022-12-01T11:15:31.256Z,78768.66
2022-12-01T11:18:03.290Z,78774.75
2022-12-01T11:20:36.750Z,78770.69
2022-12-01T11:23:09.954Z,78766.63
2022-12-01T11:25:37.221Z,78766.63
2022-12-01T11:28:05.364Z,78766.63
2022-12-01T11:30:33.493Z,78758.53
2022-12-01T11:33:03.475Z,78768.66
2022-12-01T11:35:35.459Z,78766.63
2022-12-01T11:40:55.729Z,78762.56
2022-12-01T11:43:36.417Z,78760.56
2022-12-01T11:46:07.392Z,78760.56
2022-12-01T11:48:36.482Z,78754.47
2022-12-01T11:51:28.695Z,78752.44
2022-12-01T11:54:06.745Z,78750.41
2022-12-01T11:56:33.984Z,78744.31
2022-12-01T11:59:04.048Z,78746.34
2022-12-01T12:01:46.053Z,78734.19
2022-12-01T12:04:51.813Z,78738.22
2022-12-01T12:07:30.305Z,78734.19
2022-12-01T12:10:03.042Z,78726.06
2022-12-01T12:13:00.181Z,78736.22
2022-12-01T12:15:54.798Z,78740.25
2022-12-01T12:18:45.245Z,78746.34
2022-12-01T12:21:33.356Z,78754.47
2022-12-01T12:24:33.175Z,78748.38
2022-12-01T12:27:25.333Z,78750.41
2022-12-01T12:30:04.247Z,78746.34
2022-12-01T12:33:08.540Z,78750.41
2022-12-01T12:35:47.554Z,78754.47
2022-12-01T12:38:33.158Z,78758.53
2022-12-01T12:41:31.585Z,78758.53
2022-12-01T12:44:38.911Z,78750.41
2022-12-01T12:47:51.436Z,78754.47
2022-12-01T12:50:21.084Z,78758.53
2022-12-01T12:52:53.980Z,78766.63
2022-12-01T12:55:30.360Z,78770.69
2022-12-01T12:58:07.960Z,78774.75
2022-12-01T13:00:44.080Z,78770.69
2022-12-01T13:03:34.056Z,78774.75
2022-12-01T13:06:10.350Z,78774.75
2022-12-01T13:08:45.600Z,78774.75
2022-12-01T13:11:33.402Z,78774.75
2022-12-01T13:14:02.925Z,78782.84
2022-12-01T13:16:37.314Z,78786.91
2022-12-01T13:19:29.034Z,78786.91
2022-12-01T13:21:57.490Z,78793.00
2022-12-01T13:24:27.724Z,78799.09
2022-12-01T13:26:59.578Z,78803.16
2022-12-01T13:29:38.433Z,78805.19
2022-12-01T13:32:26.594Z,78807.19
2022-12-01T13:34:53.857Z,78807.19
2022-12-01T13:37:33.908Z,78811.25
2022-12-01T13:40:29.955Z,78811.25
2022-12-01T13:43:14.686Z,78815.31
2022-12-01T13:45:42.672Z,78815.31
2022-12-01T13:48:49.176Z,78819.38
2022-12-01T13:51:16.444Z,78823.44
2022-12-01T13:54:02.761Z,78827.47
2022-12-01T13:56:46.749Z,78843.72
2022-12-01T13:59:40.277Z,78839.66
2022-12-01T14:02:18.173Z,78839.66
2022-12-01T14:04:45.237Z,78835.59
2022-12-01T14:07:27.828Z,78847.78
2022-12-01T14:10:07.455Z,78851.81
2022-12-01T14:12:37.973Z,78855.88
2022-12-01T14:15:21.632Z,78851.81
2022-12-01T14:18:00.923Z,78859.94
2022-12-01T14:20:30.028Z,78857.91
2022-12-01T14:23:29.414Z,78859.94
2022-12-01T14:26:05.207Z,78864.00
2022-12-01T14:28:55.481Z,78872.09
2022-12-01T14:31:24.083Z,78876.16
2022-12-01T14:33:59.152Z,78882.25
2022-12-01T14:36:52.909Z,78878.19
2022-12-01T14:39:28.585Z,78880.22
2022-12-01T14:41:58.731Z,78888.34
2022-12-01T14:44:42.575Z,78900.50
2022-12-01T14:47:29.667Z,78898.47
2022-12-01T14:50:11.847Z,78896.44
2022-12-01T14:52:42.498Z,78892.41
2022-12-01T14:55:26.250Z,78888.34
2022-12-01T14:58:04.878Z,78894.44
2022-12-01T15:00:36.166Z,78900.50
2022-12-01T15:03:10.026Z,78900.50
2022-12-01T15:05:40.399Z,78896.44
2022-12-01T15:08:40.841Z,78896.44
2022-12-01T15:11:21.706Z,78896.44
2022-12-01T15:13:51.704Z,78900.50
2022-12-01T15:16:22.171Z,78896.44
2022-12-01T15:18:49.856Z,78920.78
2022-12-01T15:21:29.972Z,78918.78
2022-12-01T15:24:00.078Z,78928.91
2022-12-01T15:26:45.430Z,78928.91
2022-12-01T15:29:26.138Z,78928.91
2022-12-01T15:31:57.501Z,78928.91
2022-12-01T15:34:33.496Z,78914.72
2022-12-01T15:37:04.602Z,78912.69
2022-12-01T15:39:46.852Z,78904.56
2022-12-01T15:42:27.884Z,78900.50
2022-12-01T15:45:15.560Z,78896.44
2022-12-01T15:47:45.817Z,78908.63
2022-12-01T15:50:33.563Z,78912.69
2022-12-01T15:53:05.731Z,78928.91
2022-12-01T15:55:38.300Z,78928.91
2022-12-01T15:58:16.747Z,78932.97
2022-12-01T16:01:05.529Z,78943.09
2022-12-01T16:03:46.432Z,78945.13
2022-12-01T16:06:13.882Z,78945.13
2022-12-01T16:08:41.179Z,78949.19
2022-12-01T16:11:17.221Z,78941.06
2022-12-01T16:14:08.029Z,78953.25
2022-12-01T16:16:45.280Z,78945.13
2022-12-01T16:19:12.509Z,78953.25
2022-12-01T16:21:53.931Z,78961.38
2022-12-01T16:24:28.094Z,78953.25
2022-12-01T16:27:03.906Z,78965.41
2022-12-01T16:29:47.733Z,78961.38
2022-12-01T16:32:39.414Z,78985.72
2022-12-01T16:35:23.343Z,78993.81
2022-12-01T16:37:50.585Z,78999.91
2022-12-01T16:40:17.953Z,78997.88
2022-12-01T16:42:45.732Z,78999.91
2022-12-01T16:45:15.073Z,79001.94
2022-12-01T16:47:42.904Z,78997.88
2022-12-01T16:50:18.410Z,78997.88
2022-12-01T16:52:46.319Z,79006.00
2022-12-01T16:55:23.628Z,79003.97
2022-12-01T16:57:51.807Z,79006.00
2022-12-01T17:00:19.432Z,79010.06
2022-12-01T17:02:46.587Z,79010.06
2022-12-01T17:05:13.934Z,79014.09
2022-12-01T17:07:42.305Z,79028.31
2022-12-01T17:10:10.820Z,79018.16
2022-12-01T17:12:39.139Z,79028.31
2022-12-01T17:15:07.212Z,79054.69
2022-12-01T17:17:34.374Z,79062.78
2022-12-01T17:20:02.196Z,79060.75
2022-12-01T17:22:29.310Z,79054.69
2022-12-01T17:24:56.569Z,79054.69
2022-12-01T17:27:25.261Z,79050.63
2022-12-01T17:29:52.736Z,79042.50
2022-12-01T17:32:19.727Z,79034.38
2022-12-01T17:34:47.787Z,79030.34
2022-12-01T17:37:20.702Z,79038.44
2022-12-01T17:39:49.761Z,79046.56
2022-12-01T17:42:17.145Z,79066.84
2022-12-01T17:44:44.409Z,79070.91
2022-12-01T17:47:11.874Z,79095.25
2022-12-01T17:49:39.344Z,79091.19
2022-12-01T17:52:07.145Z,79087.13
2022-12-01T17:54:34.656Z,79087.13
2022-12-01T17:57:01.950Z,79079.03
2022-12-01T17:59:29.111Z,79070.91
2022-12-01T18:01:56.088Z,79066.84
2022-12-01T18:04:23.371Z,79054.69
2022-12-01T18:06:54.012Z,79054.69
2022-12-01T18:09:22.024Z,79066.84
2022-12-01T18:11:49.533Z,79054.69
2022-12-01T18:14:17.990Z,79046.56
2022-12-01T18:16:46.073Z,79042.50
2022-12-01T18:19:13.454Z,79050.63
2022-12-01T18:21:40.517Z,79038.44
2022-12-01T18:24:11.421Z,79038.44
2022-12-01T18:26:41.243Z,79038.44
2022-12-01T18:29:13.224Z,79032.38
2022-12-01T18:31:40.728Z,79030.34
2022-12-01T18:34:10.179Z,79034.38
2022-12-01T18:36:39.160Z,79042.50
2022-12-01T18:39:08.865Z,79046.56
2022-12-01T18:41:36.446Z,79079.03
2022-12-01T18:44:04.179Z,79079.03
2022-12-01T18:46:32.172Z,79087.13
2022-12-01T18:49:03.221Z,79079.03
2022-12-01T18:51:33.479Z,79087.13
2022-12-01T18:54:02.479Z,79066.84
2022-12-01T18:56:29.885Z,79062.78
2022-12-01T18:59:02.216Z,79070.91
2022-12-01T19:01:32.505Z,79074.97
2022-12-01T19:04:00.697Z,79070.91
2022-12-01T19:06:29.027Z,79079.03
2022-12-01T19:09:00.440Z,79079.03
2022-12-01T19:11:28.689Z,79087.13
2022-12-01T19:13:57.160Z,79087.13
2022-12-01T19:16:25.047Z,79083.06
2022-12-01T19:18:53.241Z,79085.09
2022-12-01T19:21:20.630Z,79079.03
2022-12-01T19:23:48.588Z,79070.91
2022-12-01T19:26:20.594Z,79070.91
2022-12-01T19:28:48.216Z,79070.91
2022-12-01T19:31:25.214Z,79074.97
2022-12-01T19:33:54.119Z,79074.97
2022-12-01T19:36:24.538Z,79095.25
2022-12-01T19:38:53.012Z,79095.25
2022-12-01T19:41:20.900Z,79107.41
2022-12-01T19:43:48.534Z,79107.41
2022-12-01T19:46:18.375Z,79111.47
2022-12-01T19:48:46.258Z,79111.47
2022-12-01T19:51:17.878Z,79111.47
2022-12-01T19:53:45.349Z,79101.34
2022-12-01T19:56:12.843Z,79095.25
2022-12-01T19:58:40.070Z,79115.53
2022-12-01T20:01:11.326Z,79123.66
2022-12-01T20:03:40.581Z,79131.75
2022-12-01T20:06:13.106Z,79123.66
2022-12-01T20:08:41.122Z,79131.75
2022-12-01T20:11:09.404Z,79143.94
2022-12-01T20:13:38.702Z,79135.81
2022-12-01T20:16:08.954Z,79143.94
2022-12-01T20:18:37.372Z,79152.06
2022-12-01T20:21:11.378Z,79148.00
2022-12-01T20:23:38.570Z,79139.88
2022-12-01T20:26:07.419Z,79127.72
2022-12-01T20:28:36.548Z,79121.63
2022-12-01T20:31:08.855Z,79119.59
2022-12-01T20:33:36.022Z,79111.47
2022-12-01T20:36:03.867Z,79099.31
2022-12-01T20:38:31.078Z,79099.31
2022-12-01T20:40:58.001Z,79099.31
2022-12-01T20:43:25.213Z,79099.31
2022-12-01T20:45:52.120Z,79091.19
2022-12-01T20:48:19.340Z,79099.31
2022-12-01T20:50:47.363Z,79095.25
2022-12-01T20:53:15.389Z,79101.34
2022-12-01T20:55:42.288Z,79103.38
2022-12-01T20:58:09.865Z,79105.38
2022-12-01T21:00:44.325Z,79107.41
2022-12-01T21:03:12.475Z,79105.38
2022-12-01T21:05:41.268Z,79099.31
2022-12-01T21:08:11.612Z,79095.25
2022-12-01T21:10:44.883Z,79091.19
2022-12-01T21:13:42.398Z,79087.13
2022-12-01T21:16:32.515Z,79077.00
2022-12-01T21:19:06.423Z,79087.13
2022-12-01T21:21:39.956Z,79099.31
2022-12-01T21:24:22.210Z,79107.41
2022-12-01T21:26:58.164Z,79103.38
2022-12-01T21:29:47.539Z,79119.59
2022-12-01T21:32:19.975Z,79115.53
2022-12-01T21:34:47.769Z,79119.59
2022-12-01T21:37:23.938Z,79111.47
2022-12-01T21:39:53.338Z,79123.66
2022-12-01T21:42:22.969Z,79139.88
2022-12-01T21:44:50.774Z,79123.66
2022-12-01T21:47:23.869Z,79115.53
2022-12-01T21:49:57.032Z,79111.47
2022-12-01T21:52:33.293Z,79099.31
2022-12-01T21:55:23.750Z,79119.59
2022-12-01T21:57:53.085Z,79125.69
2022-12-01T22:00:32.052Z,79127.72
2022-12-01T22:03:02.035Z,79123.66
2022-12-01T22:06:07.070Z,79119.59
2022-12-01T22:08:42.243Z,79139.88
2022-12-01T22:11:19.918Z,79139.88
2022-12-01T22:14:08.171Z,79139.88
2022-12-01T22:16:47.274Z,79139.88
2022-12-01T22:19:17.106Z,79148.00
2022-12-01T22:21:46.772Z,79156.09
2022-12-01T22:24:20.024Z,79156.09
2022-12-01T22:26:50.820Z,79156.09
2022-12-01T22:29:27.287Z,79152.06
2022-12-01T22:32:29.903Z,79150.03
2022-12-01T22:35:02.297Z,79148.00
2022-12-01T22:37:38.372Z,79143.94
2022-12-01T22:40:34.277Z,79143.94
2022-12-01T22:43:18.111Z,79150.03
2022-12-01T22:45:47.866Z,79143.94
2022-12-01T22:48:31.842Z,79148.00
2022-12-01T22:51:13.826Z,79139.88
2022-12-01T22:53:43.894Z,79131.75
2022-12-01T22:56:24.205Z,79135.81
2022-12-01T22:58:51.497Z,79131.75
2022-12-01T23:01:31.890Z,79135.81
2022-12-01T23:04:14.868Z,79127.72
2022-12-01T23:06:52.474Z,79135.81
2022-12-01T23:09:21.566Z,79131.75
2022-12-01T23:11:58.162Z,79123.66
2022-12-01T23:14:25.543Z,79127.72
2022-12-01T23:17:00.740Z,79131.75
2022-12-01T23:19:27.858Z,79135.81
2022-12-01T23:21:54.674Z,79139.88
2022-12-01T23:24:21.989Z,79139.88
2022-12-01T23:26:48.995Z,79139.88
2022-12-01T23:29:16.185Z,79141.91
2022-12-01T23:31:50.158Z,79139.88
2022-12-01T23:34:18.839Z,79145.97
2022-12-01T23:36:49.098Z,79143.94
2022-12-01T23:39:18.175Z,79143.94
2022-12-01T23:41:47.368Z,79141.91
2022-12-01T23:44:39.522Z,79148.00
2022-12-01T23:47:18.435Z,79143.94
2022-12-01T23:49:47.960Z,79139.88
2022-12-01T23:52:19.813Z,79154.06
2022-12-01T23:54:47.888Z,79168.28
2022-12-01T23:57:20.853Z,79172.34
